Time;durP1;ratioP1;P1;durP2;ratioP2;P2;SDS_P1;SDS_P2;PMS_P1;PMS_P2;Temp;Humidity;BMP_temperature;BMP_pressure;BME280_temperature;BME280_humidity;BME280_pressure;Samples;Min_cycle;Max_cycle;Signal;HPM_P1;HPM_P2
2021/01/28 00:02:00;;;;;;;19.35;9.38;;;;;;;;;;5073084;28;20048;-39
2021/01/28 00:04:27;;;;;;;21.25;11.95;;;;;;;;;;5072752;28;20029;-42
2021/01/28 00:06:53;;;;;;;19.17;11.30;;;;;;;;;;5072606;28;20016;-42
2021/01/28 00:09:19;;;;;;;20.65;12.05;;;;;;;;;;5073437;28;20472;-42
2021/01/28 00:11:45;;;;;;;23.42;12.65;;;;;;;;;;5073070;28;20021;-43
2021/01/28 00:14:11;;;;;;;20.10;11.20;;;;;;;;;;5072368;28;20021;-42
2021/01/28 00:16:37;;;;;;;22.50;11.70;;;;;;;;;;5072410;28;20055;-39
2021/01/28 00:19:03;;;;;;;25.20;12.55;;;;;;;;;;5072054;28;20364;-47
2021/01/28 00:21:29;;;;;;;24.48;11.27;;;;;;;;;;5072474;28;20021;-48
2021/01/28 00:23:55;;;;;;;27.20;11.82;;;;;;;;;;5072689;28;20105;-42
2021/01/28 00:26:21;;;;;;;23.65;11.18;;;;;;;;;;5072687;28;20028;-42
2021/01/28 00:28:47;;;;;;;23.27;11.35;;;;;;;;;;5072152;28;20491;-44
2021/01/28 00:31:13;;;;;;;23.45;11.95;;;;;;;;;;5072469;28;20123;-44
2021/01/28 00:33:40;;;;;;;20.67;10.63;;;;;;;;;;5072577;28;20028;-38
2021/01/28 00:36:07;;;;;;;30.00;13.50;;;;;;;;;;5072312;28;20024;-39
2021/01/28 00:38:35;;;;;;;20.45;10.63;;;;;;;;;;5072454;28;20090;-45
2021/01/28 00:41:03;;;;;;;24.20;10.68;;;;;;;;;;5072243;28;20028;-41
2021/01/28 00:43:29;;;;;;;19.90;9.95;;;;;;;;;;5072255;28;20047;-38
2021/01/28 00:45:56;;;;;;;17.70;7.72;;;;;;;;;;5072159;28;20029;-40
2021/01/28 00:48:24;;;;;;;15.05;8.43;;;;;;;;;;5072150;28;20041;-46
2021/01/28 00:50:51;;;;;;;18.02;8.13;;;;;;;;;;5072395;28;20032;-43
2021/01/28 00:53:17;;;;;;;18.70;8.57;;;;;;;;;;5072195;28;20024;-44
2021/01/28 00:55:43;;;;;;;19.85;9.38;;;;;;;;;;5072410;28;20024;-44
2021/01/28 00:58:10;;;;;;;18.88;8.95;;;;;;;;;;5071927;28;20035;-47
2021/01/28 01:00:40;;;;;;;22.23;9.60;;;;;;;;;;5072027;28;20028;-40
2021/01/28 01:03:07;;;;;;;22.02;9.75;;;;;;;;;;5071841;28;20028;-41
2021/01/28 01:05:34;;;;;;;18.50;8.95;;;;;;;;;;5072281;28;20081;-44
2021/01/28 01:08:02;;;;;;;17.23;8.25;;;;;;;;;;5071957;28;20029;-40
2021/01/28 01:10:44;;;;;;;22.08;9.85;;;;;;;;;;5072064;28;20028;-43
2021/01/28 01:13:12;;;;;;;20.43;9.33;;;;;;;;;;5071838;28;20135;-36
2021/01/28 01:15:38;;;;;;;22.10;10.45;;;;;;;;;;5071865;28;20025;-38
2021/01/28 01:18:10;;;;;;;19.00;8.90;;;;;;;;;;5071774;28;20108;-39
2021/01/28 01:20:36;;;;;;;22.17;9.10;;;;;;;;;;5072116;28;20349;-48
2021/01/28 01:23:02;;;;;;;17.40;8.00;;;;;;;;;;5072134;28;20052;-46
2021/01/28 01:25:28;;;;;;;16.65;6.90;;;;;;;;;;5071796;28;20502;-44
2021/01/28 01:27:54;;;;;;;9.48;5.25;;;;;;;;;;5072112;28;20029;-41
2021/01/28 01:30:21;;;;;;;10.63;5.45;;;;;;;;;;5073391;28;20133;-46
2021/01/28 01:32:48;;;;;;;12.82;5.43;;;;;;;;;;5076091;28;20027;-39
2021/01/28 01:35:15;;;;;;;12.88;5.30;;;;;;;;;;5075887;28;20052;-43
2021/01/28 01:37:41;;;;;;;12.02;5.57;;;;;;;;;;5075426;28;20040;-46
2021/01/28 01:40:08;;;;;;;11.52;6.30;;;;;;;;;;5075490;28;20025;-42
2021/01/28 01:42:35;;;;;;;11.48;5.50;;;;;;;;;;5075696;28;20344;-42
2021/01/28 01:45:01;;;;;;;9.48;4.75;;;;;;;;;;5075244;28;20063;-42
2021/01/28 01:47:27;;;;;;;12.82;6.40;;;;;;;;;;5075680;28;20521;-41
2021/01/28 01:49:53;;;;;;;13.93;5.80;;;;;;;;;;5075373;28;20025;-36
2021/01/28 01:52:21;;;;;;;14.00;6.18;;;;;;;;;;5075672;28;20028;-47
2021/01/28 01:54:48;;;;;;;17.17;6.72;;;;;;;;;;5075656;28;20094;-39
2021/01/28 01:57:20;;;;;;;14.98;6.55;;;;;;;;;;5075419;28;20132;-40
2021/01/28 01:59:53;;;;;;;13.88;7.13;;;;;;;;;;5075277;28;20029;-40
2021/01/28 02:02:21;;;;;;;13.13;5.57;;;;;;;;;;5075227;28;20483;-39
2021/01/28 02:04:48;;;;;;;13.23;6.43;;;;;;;;;;5075183;28;21514;-41
2021/01/28 02:07:22;;;;;;;16.17;6.10;;;;;;;;;;5074965;28;20107;-43
2021/01/28 02:09:49;;;;;;;14.88;6.85;;;;;;;;;;5075186;28;20021;-44
2021/01/28 02:12:15;;;;;;;13.10;6.95;;;;;;;;;;5074865;28;20020;-43
2021/01/28 02:14:42;;;;;;;15.43;6.20;;;;;;;;;;5075003;28;20112;-46
2021/01/28 02:17:22;;;;;;;10.27;5.63;;;;;;;;;;5074709;28;20089;-41
2021/01/28 02:19:54;;;;;;;11.80;6.25;;;;;;;;;;5074590;28;20032;-41
2021/01/28 02:22:23;;;;;;;10.20;5.03;;;;;;;;;;5074924;28;20085;-43
2021/01/28 02:25:25;;;;;;;10.37;5.23;;;;;;;;;;5075091;28;20025;-41
2021/01/28 02:27:52;;;;;;;15.20;5.78;;;;;;;;;;4993179;28;20048;-42
2021/01/28 02:30:20;;;;;;;10.73;4.93;;;;;;;;;;5058418;28;20052;-39
2021/01/28 02:32:47;;;;;;;12.27;6.22;;;;;;;;;;5074546;28;20040;-43
2021/01/28 02:35:13;;;;;;;16.33;6.40;;;;;;;;;;5074491;28;20056;-40
2021/01/28 02:37:39;;;;;;;15.13;6.97;;;;;;;;;;5074330;28;20029;-41
2021/01/28 02:40:07;;;;;;;14.20;5.40;;;;;;;;;;5074708;28;20448;-44
2021/01/28 02:42:34;;;;;;;15.03;6.33;;;;;;;;;;5074451;28;20395;-47
2021/01/28 02:45:00;;;;;;;11.00;5.27;;;;;;;;;;5074216;28;20032;-47
2021/01/28 02:47:27;;;;;;;11.30;5.43;;;;;;;;;;5074512;28;20047;-38
2021/01/28 02:49:53;;;;;;;10.87;4.93;;;;;;;;;;5074431;28;20430;-45
2021/01/28 02:52:19;;;;;;;12.67;6.10;;;;;;;;;;5074147;28;20075;-42
2021/01/28 02:54:46;;;;;;;11.70;5.27;;;;;;;;;;5074130;28;20036;-42
2021/01/28 02:57:13;;;;;;;11.47;5.63;;;;;;;;;;5073939;28;20123;-42
2021/01/28 03:02:17;;;;;;;12.10;5.37;;;;;;;;;;5090430;22;20049;-45
2021/01/28 03:04:43;;;;;;;11.17;5.10;;;;;;;;;;5033531;28;20029;-42
2021/01/28 03:07:10;;;;;;;15.40;6.13;;;;;;;;;;5033788;28;20392;-42
2021/01/28 03:09:36;;;;;;;11.33;5.50;;;;;;;;;;5033214;28;20033;-42
2021/01/28 03:12:03;;;;;;;11.50;4.90;;;;;;;;;;5033216;28;20488;-41
2021/01/28 03:14:29;;;;;;;10.60;4.97;;;;;;;;;;5033361;28;20061;-39
2021/01/28 03:16:55;;;;;;;10.23;4.67;;;;;;;;;;5032919;28;20040;-42
2021/01/28 03:19:22;;;;;;;13.17;5.20;;;;;;;;;;5033037;28;20431;-39
2021/01/28 03:21:48;;;;;;;14.17;5.57;;;;;;;;;;5033081;28;20025;-46
2021/01/28 03:24:15;;;;;;;16.27;5.80;;;;;;;;;;5033107;28;20025;-45
2021/01/28 03:26:41;;;;;;;16.30;6.87;;;;;;;;;;5032913;28;20472;-45
2021/01/28 03:29:10;;;;;;;15.13;7.50;;;;;;;;;;5032850;28;20093;-44
2021/01/28 03:31:36;;;;;;;24.13;9.33;;;;;;;;;;5032654;28;20022;-45
2021/01/28 03:34:04;;;;;;;38.67;12.43;;;;;;;;;;5032771;28;20021;-44
2021/01/28 03:36:30;;;;;;;38.97;12.47;;;;;;;;;;5032670;28;20088;-50
2021/01/28 03:38:56;;;;;;;31.00;9.10;;;;;;;;;;5032562;28;20476;-47
2021/01/28 03:41:22;;;;;;;30.77;9.00;;;;;;;;;;5032672;28;20021;-39
2021/01/28 03:43:48;;;;;;;25.43;7.87;;;;;;;;;;5032749;28;20044;-50
2021/01/28 03:46:15;;;;;;;46.57;13.10;;;;;;;;;;5032346;28;20171;-44
2021/01/28 03:48:41;;;;;;;52.33;13.73;;;;;;;;;;5032721;28;20385;-38
2021/01/28 03:51:07;;;;;;;90.83;24.37;;;;;;;;;;5032468;28;20096;-41
2021/01/28 03:53:33;;;;;;;76.80;23.87;;;;;;;;;;5031786;28;20021;-45
2021/01/28 03:55:59;;;;;;;43.87;17.27;;;;;;;;;;5032294;28;20036;-47
2021/01/28 03:58:25;;;;;;;36.20;13.33;;;;;;;;;;5032114;28;20029;-44
2021/01/28 04:00:51;;;;;;;25.02;11.25;;;;;;;;;;5032045;28;20107;-40
2021/01/28 04:03:18;;;;;;;25.03;11.03;;;;;;;;;;5032344;28;20055;-42
2021/01/28 04:05:44;;;;;;;20.23;9.43;;;;;;;;;;5032084;28;20507;-46
2021/01/28 04:08:10;;;;;;;17.40;8.57;;;;;;;;;;5032418;28;20168;-47
2021/01/28 04:10:38;;;;;;;18.97;8.13;;;;;;;;;;5032054;28;20025;-39
2021/01/28 04:13:05;;;;;;;15.27;7.13;;;;;;;;;;5032305;28;20424;-46
2021/01/28 04:15:31;;;;;;;17.10;7.80;;;;;;;;;;5031995;28;20026;-38
2021/01/28 04:17:58;;;;;;;16.70;7.23;;;;;;;;;;5032191;28;20038;-45
2021/01/28 04:20:27;;;;;;;19.03;8.27;;;;;;;;;;5032134;28;20029;-39
2021/01/28 04:22:53;;;;;;;20.63;9.50;;;;;;;;;;5031872;28;20033;-38
2021/01/28 04:25:19;;;;;;;21.30;9.03;;;;;;;;;;5031913;28;20025;-39
2021/01/28 04:27:46;;;;;;;16.93;7.73;;;;;;;;;;5031837;28;20040;-41
2021/01/28 04:30:16;;;;;;;17.27;7.57;;;;;;;;;;5031843;28;20555;-41
2021/01/28 04:32:42;;;;;;;20.03;9.07;;;;;;;;;;5031646;28;20025;-44
2021/01/28 04:35:09;;;;;;;20.87;8.97;;;;;;;;;;5031723;28;20036;-42
2021/01/28 04:37:35;;;;;;;18.87;9.67;;;;;;;;;;5031601;28;20037;-43
2021/01/28 04:40:01;;;;;;;14.77;8.57;;;;;;;;;;5031657;28;20049;-44
2021/01/28 04:42:47;;;;;;;19.00;8.40;;;;;;;;;;5031617;28;20484;-42
2021/01/28 04:45:15;;;;;;;22.23;9.40;;;;;;;;;;5031517;28;20021;-39
2021/01/28 04:47:44;;;;;;;15.73;7.50;;;;;;;;;;5031401;28;20024;-47
2021/01/28 04:50:11;;;;;;;16.43;7.33;;;;;;;;;;5031573;28;20037;-38
2021/01/28 04:52:40;;;;;;;15.27;8.83;;;;;;;;;;5031788;28;20044;-38
2021/01/28 04:55:09;;;;;;;17.77;9.67;;;;;;;;;;5031539;28;20022;-38
2021/01/28 04:57:35;;;;;;;15.70;8.23;;;;;;;;;;5031437;28;20392;-41
2021/01/28 05:00:01;;;;;;;22.13;8.60;;;;;;;;;;5031463;28;20024;-38
2021/01/28 05:02:28;;;;;;;19.73;9.30;;;;;;;;;;5031125;28;20454;-42
2021/01/28 05:04:56;;;;;;;18.83;8.90;;;;;;;;;;5032433;28;20075;-44
2021/01/28 05:07:24;;;;;;;17.00;8.47;;;;;;;;;;5035642;28;20040;-43
2021/01/28 05:10:02;;;;;;;19.67;9.97;;;;;;;;;;5035649;28;20032;-43
2021/01/28 05:12:28;;;;;;;19.70;10.13;;;;;;;;;;5035281;28;20040;-44
2021/01/28 05:15:09;;;;;;;18.07;9.47;;;;;;;;;;5035572;28;20037;-46
2021/01/28 05:17:37;;;;;;;19.13;9.30;;;;;;;;;;5034994;28;20033;-48
2021/01/28 05:20:03;;;;;;;15.20;8.00;;;;;;;;;;5035254;28;20029;-41
2021/01/28 05:22:32;;;;;;;16.60;8.43;;;;;;;;;;5035188;28;20026;-42
2021/01/28 05:25:01;;;;;;;26.57;11.77;;;;;;;;;;5035377;28;20021;-42
2021/01/28 05:27:34;;;;;;;22.13;11.20;;;;;;;;;;5035085;28;20033;-37
2021/01/28 05:30:03;;;;;;;24.73;12.03;;;;;;;;;;5035073;28;20021;-40
2021/01/28 05:32:35;;;;;;;26.70;12.73;;;;;;;;;;5034856;28;20022;-44
2021/01/28 05:35:20;;;;;;;25.77;13.50;;;;;;;;;;5035192;28;20033;-38
2021/01/28 05:37:47;;;;;;;29.63;14.60;;;;;;;;;;5035136;28;20389;-41
2021/01/28 05:40:15;;;;;;;22.33;11.10;;;;;;;;;;5034837;28;20045;-44
2021/01/28 05:42:42;;;;;;;26.63;13.43;;;;;;;;;;5034821;28;20096;-38
2021/01/28 05:45:34;;;;;;;22.07;10.73;;;;;;;;;;5034709;28;20025;-40
2021/01/28 05:48:33;;;;;;;21.00;11.80;;;;;;;;;;5031870;28;20044;-42
2021/01/28 05:51:04;;;;;;;16.53;9.53;;;;;;;;;;5001523;28;20049;-43
2021/01/28 05:53:30;;;;;;;14.90;9.27;;;;;;;;;;5034626;28;20030;-41
2021/01/28 05:55:56;;;;;;;21.53;11.17;;;;;;;;;;5034631;28;20029;-39
2021/01/28 05:58:54;;;;;;;29.17;13.97;;;;;;;;;;5034565;28;20026;-42
2021/01/28 06:01:23;;;;;;;40.57;18.93;;;;;;;;;;5001200;28;20049;-39
2021/01/28 06:04:13;;;;;;;51.07;23.27;;;;;;;;;;5033106;28;20433;-42
2021/01/28 06:07:07;;;;;;;43.97;21.93;;;;;;;;;;5034603;28;20029;-44
2021/01/28 06:09:44;;;;;;;36.50;17.70;;;;;;;;;;5034317;28;20032;-40
2021/01/28 06:12:16;;;;;;;46.53;22.30;;;;;;;;;;5034280;28;20025;-41
2021/01/28 06:14:50;;;;;;;55.55;24.27;;;;;;;;;;5034210;28;20029;-44
2021/01/28 06:17:35;;;;;;;55.50;26.17;;;;;;;;;;5033429;28;20148;-45
2021/01/28 06:20:18;;;;;;;53.40;25.77;;;;;;;;;;5033976;28;20018;-35
2021/01/28 06:23:02;;;;;;;53.38;26.73;;;;;;;;;;5040569;28;20457;-41
2021/01/28 06:25:28;;;;;;;55.93;24.57;;;;;;;;;;5034765;28;20038;-39
2021/01/28 06:28:11;;;;;;;63.03;29.23;;;;;;;;;;5034905;28;20025;-45
2021/01/28 06:30:45;;;;;;;52.17;24.25;;;;;;;;;;5034908;28;20033;-47
2021/01/28 06:33:37;;;;;;;46.00;21.13;;;;;;;;;;5052723;28;20060;-42
2021/01/28 06:36:08;;;;;;;38.37;18.73;;;;;;;;;;5051240;28;20437;-41
2021/01/28 06:38:34;;;;;;;36.47;18.20;;;;;;;;;;5034659;28;20029;-36
2021/01/28 06:41:06;;;;;;;42.83;20.60;;;;;;;;;;5034773;28;20033;-35
2021/01/28 06:43:35;;;;;;;55.17;26.33;;;;;;;;;;5034369;28;20476;-36
2021/01/28 06:46:25;;;;;;;48.80;25.23;;;;;;;;;;5046239;28;20029;-40
2021/01/28 06:48:52;;;;;;;66.07;30.60;;;;;;;;;;5032336;28;20481;-39
2021/01/28 06:51:30;;;;;;;68.07;33.20;;;;;;;;;;5034060;28;20079;-43
2021/01/28 06:53:59;;;;;;;79.23;34.97;;;;;;;;;;5034097;28;20021;-42
2021/01/28 06:56:48;;;;;;;110.68;45.95;;;;;;;;;;5034282;28;20029;-44
2021/01/28 06:59:41;;;;;;;85.00;36.63;;;;;;;;;;5034185;28;20041;-44
2021/01/28 07:02:13;;;;;;;31.80;17.20;;;;;;;;;;5010527;28;20420;-44
2021/01/28 07:04:42;;;;;;;24.73;12.70;;;;;;;;;;5033833;28;20029;-41
2021/01/28 07:07:11;;;;;;;24.52;13.27;;;;;;;;;;5033497;28;20068;-49
2021/01/28 07:09:46;;;;;;;19.77;10.70;;;;;;;;;;5033812;28;20061;-37
2021/01/28 07:12:14;;;;;;;35.95;17.58;;;;;;;;;;5034027;28;20518;-42
2021/01/28 07:14:40;;;;;;;38.50;17.95;;;;;;;;;;5033690;28;20472;-46
2021/01/28 07:17:18;;;;;;;47.83;25.48;;;;;;;;;;5033685;28;20380;-40
2021/01/28 07:19:52;;;;;;;48.30;23.83;;;;;;;;;;5033800;28;20105;-39
2021/01/28 07:22:33;;;;;;;40.58;20.20;;;;;;;;;;5033764;28;20056;-40
2021/01/28 07:25:19;;;;;;;40.35;18.73;;;;;;;;;;5029930;28;20112;-41
2021/01/28 07:27:56;;;;;;;34.67;17.38;;;;;;;;;;5031481;28;20116;-42
2021/01/28 07:30:42;;;;;;;37.28;19.38;;;;;;;;;;5032794;28;20038;-41
2021/01/28 07:33:28;;;;;;;39.47;18.23;;;;;;;;;;5031720;28;20427;-51
2021/01/28 07:35:56;;;;;;;39.05;16.50;;;;;;;;;;5021514;28;20037;-42
2021/01/28 07:38:28;;;;;;;36.33;15.60;;;;;;;;;;5032049;28;20075;-40
2021/01/28 07:40:54;;;;;;;34.33;15.05;;;;;;;;;;5032292;28;20018;-38
2021/01/28 07:43:34;;;;;;;31.45;14.82;;;;;;;;;;5032643;28;20368;-44
2021/01/28 07:46:18;;;;;;;37.58;15.35;;;;;;;;;;5033053;28;20022;-43
2021/01/28 07:48:46;;;;;;;31.77;13.20;;;;;;;;;;5030995;28;20036;-44
2021/01/28 07:51:30;;;;;;;27.67;14.18;;;;;;;;;;5031226;28;20430;-47
2021/01/28 07:53:56;;;;;;;27.52;13.25;;;;;;;;;;5031824;28;20539;-40
2021/01/28 07:56:42;;;;;;;20.25;9.48;;;;;;;;;;5031745;28;20040;-45
2021/01/28 07:59:12;;;;;;;26.10;13.15;;;;;;;;;;5030225;28;20111;-45
2021/01/28 08:01:40;;;;;;;24.33;13.25;;;;;;;;;;5032686;28;20157;-49
2021/01/28 08:04:13;;;;;;;26.77;13.15;;;;;;;;;;5031316;28;20033;-47
2021/01/28 08:06:40;;;;;;;27.98;13.70;;;;;;;;;;5032478;28;20048;-43
2021/01/28 08:09:10;;;;;;;29.63;14.23;;;;;;;;;;5032904;28;20412;-43
2021/01/28 08:11:37;;;;;;;24.08;12.90;;;;;;;;;;5032773;28;20017;-36
2021/01/28 08:14:05;;;;;;;25.83;14.13;;;;;;;;;;5032288;28;20065;-46
2021/01/28 08:16:32;;;;;;;35.60;16.10;;;;;;;;;;5031484;28;20373;-38
2021/01/28 08:19:01;;;;;;;32.00;14.70;;;;;;;;;;5032002;28;20357;-42
2021/01/28 08:21:28;;;;;;;26.63;12.73;;;;;;;;;;5032351;28;20461;-38
2021/01/28 08:23:54;;;;;;;28.35;11.60;;;;;;;;;;5030104;28;20030;-43
2021/01/28 08:26:34;;;;;;;25.63;10.82;;;;;;;;;;5030633;28;20124;-42
2021/01/28 08:29:14;;;;;;;16.63;9.27;;;;;;;;;;5031920;28;20048;-40
2021/01/28 08:31:58;;;;;;;26.70;12.43;;;;;;;;;;5031627;28;20030;-38
2021/01/28 08:34:26;;;;;;;33.50;15.45;;;;;;;;;;5029503;28;20015;-36
2021/01/28 08:37:03;;;;;;;33.80;14.90;;;;;;;;;;5031617;28;20430;-39
2021/01/28 08:39:35;;;;;;;32.17;15.55;;;;;;;;;;5031463;28;20083;-38
2021/01/28 08:42:03;;;;;;;33.85;16.70;;;;;;;;;;5031813;28;20356;-40
2021/01/28 08:44:30;;;;;;;38.80;17.15;;;;;;;;;;5029659;28;20021;-47
2021/01/28 08:47:05;;;;;;;35.13;16.13;;;;;;;;;;5031178;28;20141;-39
2021/01/28 08:49:31;;;;;;;24.42;10.98;;;;;;;;;;5031432;28;20056;-45
2021/01/28 08:52:01;;;;;;;26.95;12.57;;;;;;;;;;5029777;28;20017;-42
2021/01/28 08:54:32;;;;;;;21.17;11.13;;;;;;;;;;5031186;28;20094;-40
2021/01/28 08:56:59;;;;;;;19.80;9.68;;;;;;;;;;5030245;28;20034;-46
2021/01/28 08:59:30;;;;;;;20.45;10.13;;;;;;;;;;5032879;28;20026;-36
2021/01/28 09:01:57;;;;;;;15.88;7.85;;;;;;;;;;5031095;28;20491;-42
2021/01/28 09:04:33;;;;;;;18.88;9.52;;;;;;;;;;5032333;28;20033;-47
2021/01/28 09:06:59;;;;;;;22.58;11.52;;;;;;;;;;5031617;28;20119;-38
2021/01/28 09:09:32;;;;;;;18.77;9.73;;;;;;;;;;5028413;28;20033;-41
2021/01/28 09:12:32;;;;;;;16.92;9.10;;;;;;;;;;5027886;28;20025;-46
2021/01/28 09:15:10;;;;;;;21.30;9.10;;;;;;;;;;4997798;28;20042;-50
2021/01/28 09:17:37;;;;;;;25.88;12.13;;;;;;;;;;5030894;28;20037;-53
2021/01/28 09:20:05;;;;;;;22.35;9.63;;;;;;;;;;5030852;28;20195;-41
2021/01/28 09:22:38;;;;;;;28.45;10.02;;;;;;;;;;5031403;28;20041;-45
2021/01/28 09:25:15;;;;;;;17.13;7.82;;;;;;;;;;5030967;28;20026;-54
2021/01/28 09:27:41;;;;;;;15.38;5.93;;;;;;;;;;5030883;28;20029;-38
2021/01/28 09:30:14;;;;;;;9.30;5.80;;;;;;;;;;5030881;28;20104;-51
2021/01/28 09:32:40;;;;;;;10.25;5.65;;;;;;;;;;5032031;28;20030;-41
2021/01/28 09:35:23;;;;;;;9.82;5.03;;;;;;;;;;5030737;28;20034;-53
2021/01/28 09:38:01;;;;;;;23.45;7.93;;;;;;;;;;5030954;28;20057;-41
2021/01/28 09:40:30;;;;;;;16.42;9.05;;;;;;;;;;5030563;28;20457;-49
2021/01/28 09:43:21;;;;;;;13.50;7.55;;;;;;;;;;5030962;28;20376;-49
2021/01/28 09:46:02;;;;;;;13.15;5.75;;;;;;;;;;5031429;28;20040;-43
2021/01/28 09:48:29;;;;;;;14.60;6.80;;;;;;;;;;5031337;28;20113;-53
2021/01/28 09:50:55;;;;;;;15.68;6.70;;;;;;;;;;5032088;28;20057;-49
2021/01/28 09:53:21;;;;;;;40.33;16.75;;;;;;;;;;5034934;28;20021;-54
2021/01/28 09:55:51;;;;;;;21.73;10.68;;;;;;;;;;5034671;28;20029;-43
2021/01/28 09:58:17;;;;;;;22.05;10.48;;;;;;;;;;5030912;28;20124;-41
2021/01/28 10:00:43;;;;;;;26.50;12.82;;;;;;;;;;5034534;28;20068;-56
2021/01/28 10:03:09;;;;;;;18.20;10.23;;;;;;;;;;5032686;28;20025;-42
2021/01/28 10:05:35;;;;;;;17.25;9.32;;;;;;;;;;5031151;28;20072;-38
2021/01/28 10:08:02;;;;;;;20.20;9.23;;;;;;;;;;5033830;28;20404;-49
2021/01/28 10:10:30;;;;;;;11.95;5.97;;;;;;;;;;5033036;28;20029;-43
2021/01/28 10:12:58;;;;;;;17.08;8.27;;;;;;;;;;5033794;28;20029;-39
2021/01/28 10:15:25;;;;;;;17.52;9.20;;;;;;;;;;5033928;28;20025;-48
2021/01/28 10:17:55;;;;;;;26.90;14.00;;;;;;;;;;5033920;28;20029;-44
2021/01/28 10:20:21;;;;;;;21.98;10.20;;;;;;;;;;5033380;28;20453;-54
2021/01/28 10:22:48;;;;;;;16.00;7.35;;;;;;;;;;5034234;28;20033;-48
2021/01/28 10:25:16;;;;;;;16.77;8.40;;;;;;;;;;5034355;28;20464;-47
2021/01/28 10:27:42;;;;;;;16.25;8.77;;;;;;;;;;5034174;28;20452;-37
2021/01/28 10:30:10;;;;;;;22.95;11.05;;;;;;;;;;5032820;28;20021;-43
2021/01/28 10:32:36;;;;;;;15.20;7.80;;;;;;;;;;5033791;28;20044;-44
2021/01/28 10:35:03;;;;;;;19.02;9.30;;;;;;;;;;5034373;28;20030;-45
2021/01/28 10:37:29;;;;;;;19.38;6.93;;;;;;;;;;5033330;28;20056;-47
2021/01/28 10:39:55;;;;;;;11.23;6.03;;;;;;;;;;5033559;28;20036;-51
2021/01/28 10:42:22;;;;;;;11.15;4.57;;;;;;;;;;5033423;28;20435;-45
2021/01/28 10:44:48;;;;;;;15.10;8.27;;;;;;;;;;5034079;28;20476;-38
2021/01/28 10:47:15;;;;;;;14.60;6.40;;;;;;;;;;5034247;28;20017;-49
2021/01/28 10:49:41;;;;;;;13.32;5.40;;;;;;;;;;5032807;28;20443;-50
2021/01/28 10:52:07;;;;;;;13.93;6.70;;;;;;;;;;5034088;28;20479;-43
2021/01/28 10:54:33;;;;;;;13.15;5.40;;;;;;;;;;5033835;28;20484;-54
2021/01/28 10:57:00;;;;;;;11.82;4.90;;;;;;;;;;5034096;28;20025;-51
2021/01/28 10:59:26;;;;;;;7.50;3.42;;;;;;;;;;5033965;28;20025;-56
2021/01/28 11:01:52;;;;;;;7.95;4.20;;;;;;;;;;5033304;28;20049;-48
2021/01/28 11:04:18;;;;;;;11.55;5.82;;;;;;;;;;5033846;28;20032;-44
2021/01/28 11:06:44;;;;;;;9.07;3.90;;;;;;;;;;5033968;28;20029;-45
2021/01/28 11:09:10;;;;;;;12.23;4.75;;;;;;;;;;5033730;28;20017;-48
2021/01/28 11:11:36;;;;;;;11.38;5.63;;;;;;;;;;5033594;28;20469;-41
2021/01/28 11:14:02;;;;;;;8.32;3.63;;;;;;;;;;5033949;28;20026;-46
2021/01/28 11:16:30;;;;;;;7.07;3.38;;;;;;;;;;5038815;28;20024;-51
2021/01/28 11:18:57;;;;;;;11.20;4.00;;;;;;;;;;5045565;28;20515;-54
2021/01/28 11:21:23;;;;;;;19.33;7.25;;;;;;;;;;5053357;28;20033;-52
2021/01/28 11:23:49;;;;;;;6.60;3.22;;;;;;;;;;5053341;28;20025;-48
2021/01/28 11:26:16;;;;;;;6.57;3.17;;;;;;;;;;5053522;28;20032;-49
2021/01/28 11:28:42;;;;;;;9.20;3.40;;;;;;;;;;5053370;28;20031;-44
2021/01/28 11:31:08;;;;;;;11.57;5.18;;;;;;;;;;5053338;28;20025;-55
2021/01/28 11:33:35;;;;;;;13.77;5.22;;;;;;;;;;5053477;28;20120;-42
2021/01/28 11:36:02;;;;;;;12.40;5.68;;;;;;;;;;5053371;28;20407;-36
2021/01/28 11:38:28;;;;;;;10.00;4.93;;;;;;;;;;5053041;28;20196;-50
2021/01/28 11:40:54;;;;;;;15.55;7.00;;;;;;;;;;5053221;28;20537;-50
2021/01/28 11:43:20;;;;;;;9.38;4.00;;;;;;;;;;5053173;28;20037;-40
2021/01/28 11:45:47;;;;;;;8.70;4.85;;;;;;;;;;5053321;28;20021;-43
2021/01/28 11:48:13;;;;;;;8.73;3.60;;;;;;;;;;5053054;28;20025;-49
2021/01/28 11:50:39;;;;;;;14.68;4.95;;;;;;;;;;5052947;28;20036;-46
2021/01/28 11:53:05;;;;;;;15.45;6.78;;;;;;;;;;5053329;28;20075;-40
2021/01/28 11:55:32;;;;;;;11.63;6.00;;;;;;;;;;5053188;28;20036;-47
2021/01/28 11:57:58;;;;;;;7.88;4.20;;;;;;;;;;5052834;28;20044;-39
2021/01/28 12:00:26;;;;;;;10.80;5.40;;;;;;;;;;5052476;28;20053;-43
2021/01/28 12:02:52;;;;;;;11.30;5.72;;;;;;;;;;5052529;28;20095;-45
2021/01/28 12:05:22;;;;;;;9.88;5.55;;;;;;;;;;5053051;28;20083;-50
2021/01/28 12:07:48;;;;;;;9.40;4.05;;;;;;;;;;5052613;28;20032;-45
2021/01/28 12:10:18;;;;;;;9.13;2.72;;;;;;;;;;5052777;28;20024;-47
2021/01/28 12:12:45;;;;;;;11.50;4.90;;;;;;;;;;5052513;28;20464;-38
2021/01/28 12:15:11;;;;;;;8.45;3.30;;;;;;;;;;5051969;28;20108;-48
2021/01/28 12:17:37;;;;;;;9.45;3.17;;;;;;;;;;5052519;28;20048;-44
2021/01/28 12:20:04;;;;;;;5.88;2.70;;;;;;;;;;5052518;28;20456;-43
2021/01/28 12:22:30;;;;;;;5.50;2.53;;;;;;;;;;5052024;28;20075;-41
2021/01/28 12:24:56;;;;;;;8.77;2.97;;;;;;;;;;5052435;28;20037;-50
2021/01/28 12:27:23;;;;;;;14.13;4.97;;;;;;;;;;5052564;28;20380;-42
2021/01/28 12:29:49;;;;;;;7.13;2.83;;;;;;;;;;5052532;28;20352;-35
2021/01/28 12:32:15;;;;;;;9.10;2.63;;;;;;;;;;5052612;28;20048;-42
2021/01/28 12:34:41;;;;;;;6.78;2.70;;;;;;;;;;5052225;28;20119;-48
2021/01/28 12:37:07;;;;;;;7.10;2.67;;;;;;;;;;5052183;28;20102;-41
2021/01/28 12:39:34;;;;;;;4.57;2.08;;;;;;;;;;5052521;28;20367;-48
2021/01/28 12:42:00;;;;;;;6.65;2.30;;;;;;;;;;5052220;28;20035;-43
2021/01/28 12:44:26;;;;;;;5.28;1.92;;;;;;;;;;5052337;28;20029;-40
2021/01/28 12:46:52;;;;;;;8.35;2.67;;;;;;;;;;5052305;28;20099;-45
2021/01/28 12:49:19;;;;;;;8.20;3.13;;;;;;;;;;5052113;28;20025;-42
2021/01/28 12:51:45;;;;;;;8.23;2.83;;;;;;;;;;5052292;28;20048;-48
2021/01/28 12:54:11;;;;;;;9.52;3.53;;;;;;;;;;5035977;28;20079;-44
2021/01/28 12:56:37;;;;;;;8.68;3.60;;;;;;;;;;5032119;28;20584;-45
2021/01/28 12:59:03;;;;;;;8.82;3.20;;;;;;;;;;5030633;28;20068;-46
2021/01/28 13:01:29;;;;;;;7.28;2.10;;;;;;;;;;5032465;28;20110;-54
2021/01/28 13:03:56;;;;;;;7.45;3.08;;;;;;;;;;5042933;28;20063;-43
2021/01/28 13:06:23;;;;;;;8.63;3.65;;;;;;;;;;5052125;28;20071;-44
2021/01/28 13:08:49;;;;;;;7.93;3.30;;;;;;;;;;5050215;28;20026;-36
2021/01/28 13:11:15;;;;;;;9.30;3.30;;;;;;;;;;5041748;28;20025;-49
2021/01/28 13:13:42;;;;;;;7.20;3.20;;;;;;;;;;5052270;28;20425;-39
2021/01/28 13:16:08;;;;;;;7.32;3.00;;;;;;;;;;5048971;28;20029;-43
2021/01/28 13:18:35;;;;;;;15.73;6.90;;;;;;;;;;5044005;28;20041;-45
2021/01/28 13:21:01;;;;;;;13.77;6.30;;;;;;;;;;5032987;28;20480;-44
2021/01/28 13:23:27;;;;;;;7.40;3.10;;;;;;;;;;5032042;28;20022;-42
2021/01/28 13:25:53;;;;;;;4.57;2.25;;;;;;;;;;5032871;28;20044;-45
2021/01/28 13:28:19;;;;;;;6.88;2.80;;;;;;;;;;5036042;28;20028;-40
2021/01/28 13:30:45;;;;;;;6.80;2.75;;;;;;;;;;5036072;28;20096;-42
2021/01/28 13:33:11;;;;;;;9.30;5.25;;;;;;;;;;5036051;28;20136;-38
2021/01/28 13:35:37;;;;;;;8.57;4.40;;;;;;;;;;5035782;28;20045;-55
2021/01/28 13:38:04;;;;;;;18.50;7.68;;;;;;;;;;5035810;28;20373;-48
2021/01/28 13:40:31;;;;;;;8.45;3.20;;;;;;;;;;5035464;28;20475;-46
2021/01/28 13:42:57;;;;;;;4.85;2.30;;;;;;;;;;5035501;28;20022;-47
2021/01/28 13:45:24;;;;;;;5.65;2.35;;;;;;;;;;5035446;28;20469;-45
2021/01/28 13:47:50;;;;;;;11.30;4.70;;;;;;;;;;5035493;28;20457;-46
2021/01/28 13:50:19;;;;;;;6.63;3.40;;;;;;;;;;5035443;28;20029;-41
2021/01/28 13:52:45;;;;;;;8.40;5.05;;;;;;;;;;5035002;28;20489;-45
2021/01/28 13:55:12;;;;;;;4.93;2.63;;;;;;;;;;5035392;28;20522;-46
2021/01/28 13:57:38;;;;;;;6.22;2.40;;;;;;;;;;5035296;28;20384;-46
2021/01/28 14:00:05;;;;;;;5.97;3.13;;;;;;;;;;5035497;28;20083;-49
2021/01/28 14:02:31;;;;;;;6.72;3.08;;;;;;;;;;5035060;28;20052;-46
2021/01/28 14:04:57;;;;;;;4.57;2.38;;;;;;;;;;5035316;28;20116;-37
2021/01/28 14:07:23;;;;;;;15.35;6.10;;;;;;;;;;5035326;28;20357;-39
2021/01/28 14:09:49;;;;;;;10.85;4.38;;;;;;;;;;5035213;28;20033;-43
2021/01/28 14:12:15;;;;;;;9.75;4.50;;;;;;;;;;5035177;28;20026;-42
2021/01/28 14:14:42;;;;;;;8.57;3.63;;;;;;;;;;5035216;28;20033;-45
2021/01/28 14:17:08;;;;;;;5.82;3.20;;;;;;;;;;5034949;28;20032;-42
2021/01/28 14:19:34;;;;;;;13.48;4.50;;;;;;;;;;5035318;28;20369;-44
2021/01/28 14:22:00;;;;;;;7.00;3.50;;;;;;;;;;5035121;28;20021;-37
2021/01/28 14:24:26;;;;;;;10.45;4.45;;;;;;;;;;5034710;28;20029;-53
2021/01/28 14:26:52;;;;;;;18.35;9.00;;;;;;;;;;5034806;28;20538;-48
2021/01/28 14:29:18;;;;;;;13.95;5.20;;;;;;;;;;5034720;28;20349;-46
2021/01/28 14:31:44;;;;;;;9.68;4.70;;;;;;;;;;5034667;28;20080;-53
2021/01/28 14:34:10;;;;;;;12.05;4.07;;;;;;;;;;5034757;28;20461;-40
2021/01/28 14:36:37;;;;;;;9.07;4.32;;;;;;;;;;5034373;28;20052;-40
2021/01/28 14:39:03;;;;;;;8.63;3.30;;;;;;;;;;5034388;28;20606;-44
2021/01/28 14:41:29;;;;;;;9.68;4.05;;;;;;;;;;5034026;28;20041;-38
2021/01/28 14:43:55;;;;;;;15.27;6.55;;;;;;;;;;5046377;28;20022;-42